Aeroporto :
LOGIN :

Iscrizione | Disclaimer

   EN    FR    IT 

 










Sommario :    VFR   VFR Marginale   IFR   IFR Intensivo   IFR Molto Intensivo
Visibilità : 
Base nubi : 
>= 8 km
>= 3000ft
5 / 8 km
1000 / 3000 ft
1500m / 5 km
500 / 1000 ft
800 / 1500m
200 / 500 ft
< 800m
< 200 ft
Simboli :   Temporali  Nebbia  Neve Forte  Precipitazioni Forti  Vento > 20 kt
SIGMETs :   Varie  Temporali  Ghiacco  Turbolenza  Onda orograficha  Ceneri Vulcaniche






- Altitudine del aeroporto : 433 ft


LFOC - Chateaudun

ULTIMO METAR :
  • 011800Z AUTO 03005KT CAVOK 10/M03 Q1017

METARs OBSOLETI :
  • 011730Z AUTO 03007KT CAVOK 12/M04 Q1017
  • 011700Z AUTO 03009KT CAVOK 12/M04 Q1017
  • 011630Z AUTO 03010KT CAVOK 12/M03 Q1017
  • 011600Z AUTO 03010KT CAVOK 12/M03 Q1017
  • 011530Z AUTO 03009KT 360V060 CAVOK 12/M04 Q1017

TAF TAF LFOC
Valido dal 01 a 15 ore il 02 a 15 ore UTC


011400Z 0115/0215 03013KT CAVOK



MetMap, La meteo Aeronautica in un colpo d'occhio ! - Copyright ORBIFLY Dicembre 2007 - Disclaimer

ORBIFLY MET'MAP TEAM :

Programmazione e sviluppo : Alexandra Zaïnal
Concezione : Baudouin d'Aumeries
Aiuto per la programmazione : Marc-Olivier Méhu
Supporto tecnico e logistico : Manuel Goepfert
Aiuto per la traduzione : Arnaldo La Scala

Contatto : metmap@orbifly.com




FONTI E CREDITI :

   NOAA